createdAt,value
2023-08-06T00:01:04.169Z,63.48
2023-08-06T00:03:31.626Z,63.38
2023-08-06T00:05:58.811Z,63.38
2023-08-06T00:08:25.586Z,63.37
2023-08-06T00:11:11.768Z,63.37
2023-08-06T00:13:38.562Z,63.36
2023-08-06T00:16:13.606Z,63.38
2023-08-06T00:18:41.816Z,63.37
2023-08-06T00:21:09.256Z,63.32
2023-08-06T00:23:36.027Z,63.30
2023-08-06T00:26:03.142Z,63.28
2023-08-06T00:28:30.812Z,63.30
2023-08-06T00:30:57.842Z,63.30
2023-08-06T00:33:25.257Z,63.19
2023-08-06T00:35:52.786Z,63.22
2023-08-06T00:38:19.562Z,63.29
2023-08-06T00:40:46.700Z,63.19
2023-08-06T00:43:14.395Z,63.25
2023-08-06T00:45:41.566Z,63.30
2023-08-06T00:48:08.937Z,63.27
2023-08-06T00:50:36.504Z,63.26
2023-08-06T00:53:03.470Z,63.22
2023-08-06T00:55:30.970Z,63.17
2023-08-06T00:57:58.508Z,63.14
2023-08-06T01:00:26.155Z,63.14
2023-08-06T01:02:54.660Z,63.18
2023-08-06T01:05:24.057Z,63.12
2023-08-06T01:08:10.131Z,63.10
2023-08-06T01:11:06.413Z,63.18
2023-08-06T01:13:47.635Z,63.13
2023-08-06T01:16:18.550Z,63.17
2023-08-06T01:18:50.693Z,63.17
2023-08-06T01:21:18.486Z,63.21
2023-08-06T01:23:47.171Z,63.26
2023-08-06T01:26:17.378Z,63.26
2023-08-06T01:29:12.014Z,63.32
2023-08-06T01:31:40.742Z,63.30
2023-08-06T01:34:15.136Z,63.44
2023-08-06T01:36:43.117Z,63.40
2023-08-06T01:39:10.538Z,63.46
2023-08-06T01:41:37.772Z,63.49
2023-08-06T01:44:05.065Z,63.50
2023-08-06T01:46:32.288Z,63.36
2023-08-06T01:48:59.433Z,63.40
2023-08-06T01:51:26.828Z,63.44
2023-08-06T01:53:53.600Z,63.45
2023-08-06T01:56:20.765Z,63.40
2023-08-06T01:58:47.882Z,63.46
2023-08-06T02:01:14.978Z,63.50
2023-08-06T02:03:41.930Z,63.52
2023-08-06T02:06:09.453Z,63.52
2023-08-06T02:08:36.206Z,63.53
2023-08-06T02:11:04.241Z,63.61
2023-08-06T02:13:31.496Z,63.56
2023-08-06T02:15:58.661Z,63.58
2023-08-06T02:18:25.494Z,63.59
2023-08-06T02:21:00.254Z,63.59
2023-08-06T02:23:27.828Z,63.54
2023-08-06T02:25:59.688Z,63.49
2023-08-06T02:28:26.900Z,63.53
2023-08-06T02:30:54.264Z,63.47
2023-08-06T02:33:21.469Z,63.47
2023-08-06T02:35:48.792Z,63.47
2023-08-06T02:38:15.671Z,63.51
2023-08-06T02:40:47.138Z,63.54
2023-08-06T02:43:14.765Z,63.57
2023-08-06T02:45:42.031Z,63.54
2023-08-06T02:48:09.233Z,63.53
2023-08-06T02:50:40.681Z,63.52
2023-08-06T02:53:11.162Z,63.52
2023-08-06T02:55:38.255Z,63.55
2023-08-06T02:58:05.415Z,63.55
2023-08-06T03:00:32.252Z,63.54
2023-08-06T03:02:59.696Z,63.57
2023-08-06T03:05:26.817Z,63.55
2023-08-06T03:07:53.676Z,63.58
2023-08-06T03:10:21.485Z,63.57
2023-08-06T03:12:48.909Z,63.58
2023-08-06T03:15:16.412Z,63.57
2023-08-06T03:17:43.283Z,63.55
2023-08-06T03:20:10.424Z,63.55
2023-08-06T03:22:37.944Z,63.56
2023-08-06T03:25:05.311Z,63.56
2023-08-06T03:27:32.404Z,63.59
2023-08-06T03:30:01.675Z,63.67
2023-08-06T03:32:28.824Z,63.66
2023-08-06T03:34:55.599Z,63.67
2023-08-06T03:37:22.831Z,63.60
2023-08-06T03:39:49.904Z,63.57
2023-08-06T03:42:16.638Z,63.61
2023-08-06T03:44:44.052Z,63.61
2023-08-06T03:47:10.835Z,63.63
2023-08-06T03:49:38.225Z,63.62
2023-08-06T03:52:05.691Z,63.72
2023-08-06T03:54:33.214Z,63.73
2023-08-06T03:57:00.039Z,63.78
2023-08-06T03:59:27.204Z,63.82
2023-08-06T04:01:54.486Z,63.83
2023-08-06T04:04:21.792Z,63.88
2023-08-06T04:06:48.615Z,63.86
2023-08-06T04:09:15.685Z,63.99
2023-08-06T04:11:42.987Z,63.95
2023-08-06T04:14:10.089Z,63.91
2023-08-06T04:16:37.211Z,63.96
2023-08-06T04:19:04.355Z,64.06
2023-08-06T04:21:31.428Z,64.00
2023-08-06T04:23:58.534Z,63.96
2023-08-06T04:26:25.956Z,63.89
2023-08-06T04:28:52.788Z,63.87
2023-08-06T04:31:19.838Z,63.87
2023-08-06T04:33:46.939Z,63.82
2023-08-06T04:36:14.181Z,63.77
2023-08-06T04:38:46.057Z,63.80
2023-08-06T04:41:12.867Z,63.74
2023-08-06T04:43:40.318Z,63.75
2023-08-06T04:46:08.073Z,63.89
2023-08-06T04:48:35.193Z,63.78
2023-08-06T04:51:02.288Z,63.74
2023-08-06T04:53:29.059Z,63.73
2023-08-06T04:55:56.248Z,63.73
2023-08-06T04:58:23.328Z,63.67
2023-08-06T05:00:50.335Z,63.72
2023-08-06T05:03:17.857Z,63.71
2023-08-06T05:05:45.263Z,63.66
2023-08-06T05:08:17.177Z,63.63
2023-08-06T05:10:46.118Z,63.62
2023-08-06T05:13:13.189Z,63.62
2023-08-06T05:15:43.913Z,63.60
2023-08-06T05:18:12.706Z,63.66
2023-08-06T05:20:43.901Z,63.62
2023-08-06T05:23:10.698Z,63.59
2023-08-06T05:25:41.624Z,63.62
2023-08-06T05:28:08.806Z,63.70
2023-08-06T05:30:40.079Z,63.74
2023-08-06T05:33:07.693Z,63.67
2023-08-06T05:35:34.801Z,63.70
2023-08-06T05:38:01.965Z,63.70
2023-08-06T05:40:28.708Z,63.70
2023-08-06T05:42:56.680Z,63.72
2023-08-06T05:45:23.774Z,63.77
2023-08-06T05:47:51.010Z,63.77
2023-08-06T05:50:18.625Z,63.70
2023-08-06T05:52:45.457Z,63.61
2023-08-06T05:55:12.698Z,63.62
2023-08-06T05:57:39.833Z,63.68
2023-08-06T06:00:08.495Z,63.68
2023-08-06T06:02:35.634Z,63.54
2023-08-06T06:05:02.747Z,63.49
2023-08-06T06:07:29.820Z,63.40
2023-08-06T06:09:56.935Z,63.34
2023-08-06T06:12:24.128Z,63.23
2023-08-06T06:14:51.522Z,63.15
2023-08-06T06:17:18.593Z,63.09
2023-08-06T06:19:45.433Z,63.04
2023-08-06T06:22:12.796Z,63.14
2023-08-06T06:24:39.628Z,63.20
2023-08-06T06:27:07.183Z,63.18
2023-08-06T06:29:53.977Z,63.16
2023-08-06T06:32:22.188Z,63.16
2023-08-06T06:34:49.265Z,63.09
2023-08-06T06:37:16.708Z,63.12
2023-08-06T06:39:44.016Z,63.15
2023-08-06T06:42:10.824Z,63.24
2023-08-06T06:44:38.343Z,63.30
2023-08-06T06:47:06.154Z,63.33
2023-08-06T06:49:33.465Z,63.35
2023-08-06T06:52:00.289Z,63.35
2023-08-06T06:54:27.401Z,63.43
2023-08-06T06:56:54.506Z,63.44
2023-08-06T06:59:21.628Z,63.34
2023-08-06T07:01:49.028Z,63.26
2023-08-06T07:04:16.157Z,63.18
2023-08-06T07:06:43.718Z,63.22
2023-08-06T07:09:13.518Z,63.15
2023-08-06T07:11:40.820Z,63.04
2023-08-06T07:14:09.295Z,62.94
2023-08-06T07:16:36.220Z,62.69
2023-08-06T07:19:03.695Z,62.57
2023-08-06T07:21:30.481Z,62.52
2023-08-06T07:23:57.656Z,62.53
2023-08-06T07:26:25.154Z,62.47
2023-08-06T07:28:52.039Z,62.49
2023-08-06T07:31:19.146Z,62.46
2023-08-06T07:33:46.373Z,62.41
2023-08-06T07:36:15.346Z,62.35
2023-08-06T07:38:42.599Z,62.33
2023-08-06T07:41:10.660Z,62.31
2023-08-06T07:43:37.914Z,62.28
2023-08-06T07:46:05.210Z,62.23
2023-08-06T07:48:32.082Z,62.18
2023-08-06T07:50:59.566Z,62.18
2023-08-06T07:53:30.762Z,62.15
2023-08-06T07:55:58.203Z,62.08
2023-08-06T07:58:26.855Z,62.10
2023-08-06T08:00:54.099Z,62.06
2023-08-06T08:03:21.092Z,62.00
2023-08-06T08:05:48.812Z,61.95
2023-08-06T08:08:15.696Z,61.85
2023-08-06T08:10:43.210Z,61.75
2023-08-06T08:13:11.548Z,61.66
2023-08-06T08:15:38.346Z,61.50
2023-08-06T08:18:05.540Z,61.33
2023-08-06T08:20:33.096Z,60.95
2023-08-06T08:23:04.207Z,60.87
2023-08-06T08:25:32.885Z,60.86
2023-08-06T08:28:00.068Z,60.78
2023-08-06T08:30:27.914Z,60.69
2023-08-06T08:32:55.229Z,60.57
2023-08-06T08:35:22.344Z,60.49
2023-08-06T08:37:50.350Z,60.40
2023-08-06T08:40:17.931Z,60.27
2023-08-06T08:42:45.181Z,60.20
2023-08-06T08:45:21.909Z,60.13
2023-08-06T08:47:49.753Z,60.07
2023-08-06T08:50:19.559Z,59.98
2023-08-06T08:52:47.013Z,59.89
2023-08-06T08:55:16.775Z,59.82
2023-08-06T08:57:44.789Z,59.74
2023-08-06T09:00:12.165Z,59.65
2023-08-06T09:02:40.667Z,59.55
2023-08-06T09:05:09.465Z,59.44
2023-08-06T09:07:49.584Z,59.36
2023-08-06T09:10:20.439Z,59.23
2023-08-06T09:12:48.185Z,59.10
2023-08-06T09:15:15.567Z,59.00
2023-08-06T09:17:42.418Z,58.91
2023-08-06T09:20:28.682Z,58.82
2023-08-06T09:22:55.540Z,58.70
2023-08-06T09:25:25.932Z,58.57
2023-08-06T09:27:53.429Z,58.48
2023-08-06T09:30:35.461Z,58.44
2023-08-06T09:33:02.685Z,58.36
2023-08-06T09:35:33.455Z,58.34
2023-08-06T09:38:18.406Z,58.29
2023-08-06T09:40:45.655Z,58.19
2023-08-06T09:43:13.299Z,58.17
2023-08-06T09:45:40.194Z,58.09
2023-08-06T09:48:09.418Z,58.06
2023-08-06T09:50:39.176Z,58.07
2023-08-06T09:53:08.482Z,57.98
2023-08-06T09:55:36.049Z,57.81
2023-08-06T09:58:03.625Z,57.78
2023-08-06T10:00:32.468Z,57.76
2023-08-06T10:03:02.526Z,57.72
2023-08-06T10:05:32.887Z,57.69
2023-08-06T10:08:00.933Z,57.76
2023-08-06T10:10:29.370Z,57.74
2023-08-06T10:12:59.624Z,57.83
2023-08-06T10:15:30.433Z,57.86
2023-08-06T10:18:00.547Z,57.88
2023-08-06T10:20:28.071Z,57.88
2023-08-06T10:23:02.771Z,57.88
2023-08-06T10:25:35.238Z,57.97
2023-08-06T10:28:10.518Z,58.03
2023-08-06T10:30:46.676Z,58.12
2023-08-06T10:33:13.998Z,58.15
2023-08-06T10:35:52.452Z,58.28
2023-08-06T10:38:24.083Z,58.32
2023-08-06T10:41:05.079Z,58.38
2023-08-06T10:43:32.211Z,58.47
2023-08-06T10:46:01.741Z,58.55
2023-08-06T10:48:42.857Z,58.61
2023-08-06T10:51:11.836Z,58.73
2023-08-06T10:53:43.021Z,58.80
2023-08-06T10:56:23.909Z,58.86
2023-08-06T10:58:53.040Z,59.01
2023-08-06T11:01:20.736Z,59.16
2023-08-06T11:03:50.445Z,59.25
2023-08-06T11:06:22.392Z,59.37
2023-08-06T11:08:55.017Z,59.45
2023-08-06T11:11:24.803Z,59.56
2023-08-06T11:13:53.156Z,59.67
2023-08-06T11:16:24.818Z,59.78
2023-08-06T11:18:54.071Z,59.91
2023-08-06T11:21:22.799Z,60.01
2023-08-06T11:23:50.504Z,60.11
2023-08-06T11:26:21.829Z,60.20
2023-08-06T11:28:48.747Z,60.28
2023-08-06T11:31:23.032Z,60.35
2023-08-06T11:33:57.236Z,60.42
2023-08-06T11:36:34.750Z,60.49
2023-08-06T11:39:03.961Z,60.53
2023-08-06T11:41:31.807Z,60.58
2023-08-06T11:44:00.120Z,60.61
2023-08-06T11:46:27.674Z,60.65
2023-08-06T11:48:59.914Z,60.72
2023-08-06T11:51:28.113Z,60.78
2023-08-06T11:53:59.513Z,60.83
2023-08-06T11:56:27.675Z,60.78
2023-08-06T11:58:57.174Z,60.80
2023-08-06T12:01:24.567Z,60.85
2023-08-06T12:03:51.418Z,60.94
2023-08-06T12:06:18.963Z,61.00
2023-08-06T12:08:45.954Z,61.04
2023-08-06T12:11:13.366Z,61.21
2023-08-06T12:13:40.433Z,61.38
2023-08-06T12:16:07.596Z,61.48
2023-08-06T12:18:34.846Z,61.51
2023-08-06T12:21:02.054Z,61.50
2023-08-06T12:23:28.807Z,61.41
2023-08-06T12:25:56.240Z,61.31
2023-08-06T12:28:24.121Z,61.24
2023-08-06T12:30:52.063Z,61.20
2023-08-06T12:33:20.479Z,61.12
2023-08-06T12:35:47.843Z,61.06
2023-08-06T12:38:14.833Z,61.02
2023-08-06T12:40:43.951Z,60.98
2023-08-06T12:43:11.290Z,60.90
2023-08-06T12:45:38.080Z,60.85
2023-08-06T12:48:05.903Z,60.90
2023-08-06T12:50:34.091Z,60.86
2023-08-06T12:53:01.997Z,60.79
2023-08-06T12:55:31.893Z,60.74
2023-08-06T12:58:00.431Z,60.64
2023-08-06T13:00:27.942Z,60.51
2023-08-06T13:02:55.631Z,60.45
2023-08-06T13:05:23.028Z,60.52
2023-08-06T13:07:50.491Z,60.56
2023-08-06T13:10:17.904Z,60.50
2023-08-06T13:12:45.723Z,60.49
2023-08-06T13:15:15.951Z,60.46
2023-08-06T13:17:43.352Z,60.43
2023-08-06T13:20:11.743Z,60.35
2023-08-06T13:22:39.196Z,60.28
2023-08-06T13:25:06.375Z,60.21
2023-08-06T13:27:34.020Z,60.23
2023-08-06T13:30:01.951Z,60.23
2023-08-06T13:32:29.134Z,60.16
2023-08-06T13:34:56.541Z,60.12
2023-08-06T13:37:24.200Z,60.07
2023-08-06T13:39:51.267Z,60.05
2023-08-06T13:42:18.826Z,60.01
2023-08-06T13:44:46.277Z,59.95
2023-08-06T13:47:13.506Z,59.91
2023-08-06T13:52:28.386Z,59.82
2023-08-06T13:54:55.819Z,59.72
2023-08-06T13:57:22.891Z,59.57
2023-08-06T13:59:50.792Z,59.44
2023-08-06T14:02:18.627Z,59.20
2023-08-06T14:04:46.438Z,59.01
2023-08-06T14:07:13.691Z,58.72
2023-08-06T14:09:41.796Z,58.51
2023-08-06T14:12:08.961Z,58.32
2023-08-06T14:14:38.239Z,58.14
2023-08-06T14:17:06.103Z,58.05
2023-08-06T14:19:33.602Z,57.89
2023-08-06T14:22:01.288Z,57.83
2023-08-06T14:24:29.301Z,57.77
2023-08-06T14:26:57.038Z,57.70
2023-08-06T14:29:24.595Z,57.65
2023-08-06T14:31:53.027Z,57.60
2023-08-06T14:34:20.629Z,57.58
2023-08-06T14:36:50.037Z,57.55
2023-08-06T14:39:17.849Z,57.39
2023-08-06T14:41:46.289Z,57.30
2023-08-06T14:44:13.432Z,57.16
2023-08-06T14:46:41.206Z,57.00
2023-08-06T14:49:08.509Z,56.86
2023-08-06T14:51:35.977Z,56.75
2023-08-06T14:54:03.623Z,56.63
2023-08-06T14:56:31.407Z,56.57
2023-08-06T14:58:58.918Z,56.48
2023-08-06T15:01:26.569Z,56.38
2023-08-06T15:03:55.325Z,56.36
2023-08-06T15:06:23.198Z,56.30
2023-08-06T15:08:50.426Z,56.20
2023-08-06T15:11:18.101Z,56.21
2023-08-06T15:13:45.572Z,56.20
2023-08-06T15:16:13.595Z,56.25
2023-08-06T15:18:41.436Z,56.29
2023-08-06T15:21:09.155Z,56.29
2023-08-06T15:23:37.535Z,56.33
2023-08-06T15:26:04.996Z,56.36
2023-08-06T15:28:32.751Z,56.39
2023-08-06T15:31:00.614Z,56.47
2023-08-06T15:33:28.076Z,56.57
2023-08-06T15:35:54.993Z,56.68
2023-08-06T15:38:22.133Z,56.77
2023-08-06T15:40:49.999Z,56.86
2023-08-06T15:43:17.110Z,56.94
2023-08-06T15:45:44.195Z,56.98
2023-08-06T15:48:12.236Z,56.94
2023-08-06T15:50:40.406Z,56.94
2023-08-06T15:53:08.174Z,57.00
2023-08-06T15:55:38.868Z,57.15
2023-08-06T15:58:06.914Z,57.25
2023-08-06T16:00:35.145Z,57.36
2023-08-06T16:03:04.226Z,57.49
2023-08-06T16:05:32.666Z,57.64
2023-08-06T16:08:00.863Z,57.74
2023-08-06T16:10:27.940Z,57.86
2023-08-06T16:12:55.141Z,57.99
2023-08-06T16:15:23.433Z,58.10
2023-08-06T16:17:50.896Z,58.16
2023-08-06T16:20:19.118Z,58.22
2023-08-06T16:22:47.217Z,58.28
2023-08-06T16:25:14.741Z,58.27
2023-08-06T16:27:43.027Z,58.23
2023-08-06T16:30:10.897Z,58.23
2023-08-06T16:32:38.981Z,58.21
2023-08-06T16:35:08.463Z,58.21
2023-08-06T16:37:36.010Z,58.20
2023-08-06T16:40:06.093Z,58.23
2023-08-06T16:42:33.498Z,58.33
2023-08-06T16:45:02.428Z,58.41
2023-08-06T16:47:30.104Z,58.50
2023-08-06T16:49:59.044Z,58.52
2023-08-06T16:52:26.585Z,58.50
2023-08-06T16:54:54.117Z,58.54
2023-08-06T16:57:22.081Z,58.60
2023-08-06T16:59:49.908Z,58.49
2023-08-06T17:02:17.712Z,58.36
2023-08-06T17:04:48.302Z,58.30
2023-08-06T17:07:15.641Z,58.26
2023-08-06T17:09:44.008Z,58.30
2023-08-06T17:12:11.620Z,58.39
2023-08-06T17:14:39.017Z,58.41
2023-08-06T17:17:06.841Z,58.43
2023-08-06T17:19:34.122Z,58.45
2023-08-06T17:22:02.478Z,58.55
2023-08-06T17:24:29.645Z,58.56
2023-08-06T17:27:00.350Z,58.63
2023-08-06T17:29:27.918Z,58.66
2023-08-06T17:31:55.711Z,58.71
2023-08-06T17:34:23.678Z,58.77
2023-08-06T17:36:51.029Z,58.77
2023-08-06T17:39:18.686Z,58.77
2023-08-06T17:41:48.247Z,58.83
2023-08-06T17:44:16.564Z,58.80
2023-08-06T17:46:44.277Z,58.73
2023-08-06T17:49:12.225Z,58.74
2023-08-06T17:51:39.613Z,58.67
2023-08-06T17:54:08.602Z,58.57
2023-08-06T17:56:36.582Z,58.53
2023-08-06T17:59:04.258Z,58.59
2023-08-06T18:01:31.660Z,58.55
2023-08-06T18:03:59.294Z,58.68
2023-08-06T18:06:26.917Z,58.70
2023-08-06T18:08:54.080Z,58.82
2023-08-06T18:11:21.643Z,58.95
2023-08-06T18:13:50.956Z,58.90
2023-08-06T18:16:18.362Z,58.90
2023-08-06T18:18:45.887Z,59.00
2023-08-06T18:21:15.390Z,59.07
2023-08-06T18:23:42.995Z,59.25
2023-08-06T18:26:10.408Z,59.28
2023-08-06T18:28:37.989Z,59.42
2023-08-06T18:31:05.481Z,59.42
2023-08-06T18:33:33.236Z,59.52
2023-08-06T18:36:00.988Z,59.55
2023-08-06T18:38:28.548Z,59.57
2023-08-06T18:40:59.697Z,59.60
2023-08-06T18:43:29.221Z,59.56
2023-08-06T18:45:57.574Z,59.58
2023-08-06T18:48:26.327Z,59.63
2023-08-06T18:50:55.351Z,59.50
2023-08-06T18:53:23.162Z,59.58
2023-08-06T18:55:52.353Z,59.62
2023-08-06T18:58:20.091Z,59.64
2023-08-06T19:00:48.625Z,59.51
2023-08-06T19:03:16.100Z,59.67
2023-08-06T19:05:44.801Z,59.59
2023-08-06T19:08:15.335Z,59.62
2023-08-06T19:10:42.592Z,59.52
2023-08-06T19:13:12.991Z,59.52
2023-08-06T19:15:45.967Z,59.59
2023-08-06T19:18:13.621Z,59.51
2023-08-06T19:20:45.658Z,59.55
2023-08-06T19:23:21.742Z,59.58
2023-08-06T19:25:50.398Z,59.62
2023-08-06T19:28:18.659Z,59.67
2023-08-06T19:30:45.902Z,59.66
2023-08-06T19:33:17.524Z,59.70
2023-08-06T19:35:50.588Z,59.73
2023-08-06T19:38:23.563Z,59.79
2023-08-06T19:40:51.596Z,59.55
2023-08-06T19:43:19.679Z,59.55
2023-08-06T19:45:50.804Z,59.60
2023-08-06T19:48:18.249Z,59.76
2023-08-06T19:51:01.385Z,59.79
2023-08-06T19:53:32.927Z,59.76
2023-08-06T19:56:03.541Z,59.75
2023-08-06T19:58:33.758Z,59.79
2023-08-06T20:01:01.442Z,59.91
2023-08-06T20:03:32.881Z,60.03
2023-08-06T20:06:04.445Z,60.09
2023-08-06T20:08:35.049Z,60.11
2023-08-06T20:11:02.207Z,60.14
2023-08-06T20:13:29.857Z,60.21
2023-08-06T20:15:57.600Z,60.23
2023-08-06T20:18:27.333Z,60.25
2023-08-06T20:20:55.666Z,60.33
2023-08-06T20:23:24.553Z,60.27
2023-08-06T20:25:54.224Z,60.39
2023-08-06T20:28:21.702Z,60.44
2023-08-06T20:30:49.312Z,60.39
2023-08-06T20:33:16.383Z,60.45
2023-08-06T20:35:44.452Z,60.54
2023-08-06T20:38:12.068Z,60.51
2023-08-06T20:40:45.513Z,60.58
2023-08-06T20:43:13.320Z,60.26
2023-08-06T20:45:41.570Z,60.06
2023-08-06T20:48:08.935Z,60.02
2023-08-06T20:50:41.902Z,60.13
2023-08-06T20:53:09.737Z,60.15
2023-08-06T20:55:37.053Z,60.02
2023-08-06T20:58:03.886Z,60.00
2023-08-06T21:00:30.948Z,59.86
2023-08-06T21:02:58.518Z,59.67
2023-08-06T21:05:27.766Z,59.67
2023-08-06T21:07:55.161Z,59.63
2023-08-06T21:10:22.211Z,59.60
2023-08-06T21:12:49.349Z,59.54
2023-08-06T21:15:16.186Z,59.53
2023-08-06T21:17:44.062Z,59.48
2023-08-06T21:20:11.170Z,59.50
2023-08-06T21:22:38.293Z,59.52
2023-08-06T21:25:05.917Z,59.50
2023-08-06T21:27:33.066Z,59.62
2023-08-06T21:29:59.968Z,59.52
2023-08-06T21:32:27.229Z,59.53
2023-08-06T21:34:54.424Z,59.55
2023-08-06T21:37:21.937Z,59.53
2023-08-06T21:39:49.064Z,59.53
2023-08-06T21:42:15.863Z,59.58
2023-08-06T21:44:43.005Z,59.60
2023-08-06T21:47:11.038Z,59.51
2023-08-06T21:49:38.178Z,59.51
2023-08-06T21:52:05.363Z,59.54
2023-08-06T21:54:32.849Z,59.63
2023-08-06T21:57:00.010Z,59.55
2023-08-06T21:59:27.163Z,59.58
2023-08-06T22:01:54.834Z,59.66
2023-08-06T22:04:22.524Z,59.63
2023-08-06T22:06:49.270Z,59.63
2023-08-06T22:09:16.350Z,59.65
2023-08-06T22:11:43.781Z,59.75
2023-08-06T22:14:10.556Z,59.83
2023-08-06T22:16:37.694Z,59.89
2023-08-06T22:19:05.213Z,59.89
2023-08-06T22:21:32.707Z,59.87
2023-08-06T22:24:00.110Z,59.90
2023-08-06T22:26:27.252Z,59.96
2023-08-06T22:29:01.252Z,60.02
2023-08-06T22:31:29.495Z,60.02
2023-08-06T22:33:56.685Z,59.94
2023-08-06T22:36:23.897Z,59.96
2023-08-06T22:38:50.961Z,60.02
2023-08-06T22:41:19.258Z,60.06
2023-08-06T22:43:46.028Z,60.10
2023-08-06T22:46:13.729Z,60.09
2023-08-06T22:48:41.258Z,59.96
2023-08-06T22:51:08.032Z,59.96
2023-08-06T22:53:35.156Z,59.88
2023-08-06T22:56:08.957Z,59.89
2023-08-06T22:58:39.044Z,59.93
2023-08-06T23:01:06.132Z,59.99
2023-08-06T23:03:33.402Z,59.90
2023-08-06T23:06:00.568Z,59.95
2023-08-06T23:08:27.728Z,59.96
2023-08-06T23:10:54.521Z,59.81
2023-08-06T23:13:21.689Z,59.88
2023-08-06T23:15:49.399Z,59.84
2023-08-06T23:18:16.192Z,59.79
2023-08-06T23:20:44.708Z,59.80
2023-08-06T23:23:11.833Z,59.73
2023-08-06T23:25:38.571Z,59.79
2023-08-06T23:28:06.046Z,59.74
2023-08-06T23:30:33.529Z,59.65
2023-08-06T23:33:00.403Z,59.60
2023-08-06T23:35:27.808Z,59.69
2023-08-06T23:37:54.727Z,59.61
2023-08-06T23:40:22.087Z,59.61
2023-08-06T23:42:49.542Z,59.54
2023-08-06T23:45:16.383Z,59.42
2023-08-06T23:47:44.540Z,59.41
2023-08-06T23:50:11.731Z,59.41
2023-08-06T23:52:38.579Z,59.41
2023-08-06T23:55:06.248Z,59.44
2023-08-06T23:57:33.757Z,59.52
